ヴォルゴグラード の空港の天気 - METARとTAF

ヴォルゴグラード国際空港 ( URWW / VOG ) - ロシア ヴォルゴグラード
飛行場実況気象(Metar)
観測時間01/16 20:30 MSK (01/16 17:30 UTC)
風向・風速西北西 4m/s
視程10km以上
天気現象
全天の8割程度の雲 雲底高度 730m
気温-5℃
湿度86%
気圧1012hPa
METARURWW 161730Z 29004MPS 9999 BKN024 M05/M07 Q1012 R24/850340 TEMPO 0200 FZFG OVC002
過去の天気等 Google飛行場航空写真 Wunderground天気予報

過去48時間のMETAR

飛行場予報(TAF)
発表時間: 1/16 19:59 MSK (1/16 16:59 UTC)
予報対象時間: 16日21時 MSK ~ 17日6時 MSK
風向・風速西北西 5m/s 瞬間風速 12m/s
視程6000m
全天の8割程度の雲 雲底高度 490m
全天の4割程度の積乱雲 雲底高度 610m
16日21時 MSK ~ 17日6時 MSK に一時的に
風向・風速西 3m/s 瞬間風速 10m/s
天気現象弱いしゅう雪
16日21時 MSK ~ 17日6時 MSK に 確率 40% で一時的に
視程300m
天気現象氷霧
全天の8割程度の雲 雲底高度 60m
全天の4割程度の積乱雲 雲底高度 610m
TAF URWW 161659Z 1618/1703 29005G12MPS 6000 BKN016 SCT020CB
TEMPO 1618/1703 26003G10MPS -SHSN
PROB40 TEMPO 1618/1703 0300 FZFG BKN002 SCT020CB